Archival Weather

NSFA McMurdo Sound

NSFA McMurdo Sound, Antarctica (NZCM)

Report from: Tuesday, September 19, 2023 8:55 AM UTC
Current time: Monday, June 17, 2024 11:44 AM UTC

Current weather – Weather history – Daily summaries
Weather forecast

Temperature-14.0°C (6.8°F)
Wind chill-26.6°C (-15.9°F)
Dew point-19.0°C (-2.2°F)
Winds 24 kts (12.3 m/s, 27.6 mph) Southeast (130°)
Wind gusts 30 kts (15.4 m/s, 34.5 mph)
Peak wind 30 kts (15.4 m/s, 34.5 mph) Southeast (130°) at 08:46
Visibility6.2 mi. (10 km)
Clouds Ceiling: Overcast 6,000 ft. (1,829 m)
Altimeter28.90 in.Hg (979 mB)
Relative humidity66 %
Density altitude-5,866 ft. (-1,788 m)
Sea-level pressure107.9 kPa (1079 mB, 31.87 in.Hg)
Remarks Fully automated report
Automated weather observing station with precipitation discriminator
Pressure falling more quickly
Flight conditions Visual Meteorological Conditions
Raw dataNZCM 190855Z AUTO 13024G30KT 9999 OVC060 M14/M19 A2890 RMK AO2 PK WND 13030/0846 SLP794 T11401190 58007
An error has occurred. This application may no longer respond until reloaded. Reload 🗙